sensor_id;sensor_type;location;lat;lon;timestamp;P1;durP1;ratioP1;P2;durP2;ratioP2
74383;SDS011;62824;52.994;-3.936;2023-09-19T00:01:33;9.00;;;2.30;;
74383;SDS011;62824;52.994;-3.936;2023-09-19T00:03:59;10.15;;;2.03;;
74383;SDS011;62824;52.994;-3.936;2023-09-19T00:06:28;13.73;;;2.42;;
74383;SDS011;62824;52.994;-3.936;2023-09-19T00:08:56;9.15;;;1.95;;
74383;SDS011;62824;52.994;-3.936;2023-09-19T00:11:24;6.28;;;1.80;;
74383;SDS011;62824;52.994;-3.936;2023-09-19T00:13:51;14.43;;;2.42;;
74383;SDS011;62824;52.994;-3.936;2023-09-19T00:16:17;11.35;;;2.55;;
74383;SDS011;62824;52.994;-3.936;2023-09-19T00:18:44;11.07;;;2.00;;
74383;SDS011;62824;52.994;-3.936;2023-09-19T00:21:10;6.45;;;1.95;;
74383;SDS011;62824;52.994;-3.936;2023-09-19T00:23:36;7.50;;;2.60;;
74383;SDS011;62824;52.994;-3.936;2023-09-19T00:26:02;10.63;;;2.40;;
74383;SDS011;62824;52.994;-3.936;2023-09-19T00:28:29;9.82;;;2.25;;
74383;SDS011;62824;52.994;-3.936;2023-09-19T00:30:55;7.30;;;2.47;;
74383;SDS011;62824;52.994;-3.936;2023-09-19T00:33:23;10.15;;;2.55;;
74383;SDS011;62824;52.994;-3.936;2023-09-19T00:35:50;10.93;;;2.25;;
74383;SDS011;62824;52.994;-3.936;2023-09-19T00:38:17;9.63;;;2.25;;
74383;SDS011;62824;52.994;-3.936;2023-09-19T00:40:46;8.18;;;1.67;;
74383;SDS011;62824;52.994;-3.936;2023-09-19T00:43:12;9.32;;;2.17;;
74383;SDS011;62824;52.994;-3.936;2023-09-19T00:45:38;11.98;;;2.20;;
74383;SDS011;62824;52.994;-3.936;2023-09-19T00:48:07;8.20;;;1.90;;
74383;SDS011;62824;52.994;-3.936;2023-09-19T00:50:34;13.57;;;1.98;;
74383;SDS011;62824;52.994;-3.936;2023-09-19T00:53:01;11.38;;;2.13;;
74383;SDS011;62824;52.994;-3.936;2023-09-19T00:55:33;11.02;;;2.17;;
74383;SDS011;62824;52.994;-3.936;2023-09-19T00:58:00;14.68;;;2.55;;
74383;SDS011;62824;52.994;-3.936;2023-09-19T01:00:26;11.45;;;2.50;;
74383;SDS011;62824;52.994;-3.936;2023-09-19T01:02:53;8.93;;;2.38;;
74383;SDS011;62824;52.994;-3.936;2023-09-19T01:05:19;8.25;;;1.80;;
74383;SDS011;62824;52.994;-3.936;2023-09-19T01:07:45;8.65;;;2.40;;
74383;SDS011;62824;52.994;-3.936;2023-09-19T01:10:14;9.60;;;1.85;;
74383;SDS011;62824;52.994;-3.936;2023-09-19T01:26:21;5.68;;;1.52;;
74383;SDS011;62824;52.994;-3.936;2023-09-19T01:31:49;6.47;;;1.83;;
74383;SDS011;62824;52.994;-3.936;2023-09-19T01:34:19;9.02;;;1.90;;
74383;SDS011;62824;52.994;-3.936;2023-09-19T01:36:45;6.00;;;1.40;;
74383;SDS011;62824;52.994;-3.936;2023-09-19T01:39:11;7.22;;;1.88;;
74383;SDS011;62824;52.994;-3.936;2023-09-19T01:44:31;8.15;;;1.73;;
74383;SDS011;62824;52.994;-3.936;2023-09-19T01:47:19;7.53;;;1.80;;
74383;SDS011;62824;52.994;-3.936;2023-09-19T01:52:38;7.68;;;1.63;;
74383;SDS011;62824;52.994;-3.936;2023-09-19T01:55:26;4.82;;;1.40;;
74383;SDS011;62824;52.994;-3.936;2023-09-19T01:58:14;5.05;;;1.58;;
74383;SDS011;62824;52.994;-3.936;2023-09-19T02:00:46;4.35;;;1.30;;
74383;SDS011;62824;52.994;-3.936;2023-09-19T02:03:17;7.20;;;1.30;;
74383;SDS011;62824;52.994;-3.936;2023-09-19T02:05:51;5.40;;;1.58;;
74383;SDS011;62824;52.994;-3.936;2023-09-19T02:08:19;7.15;;;2.25;;
74383;SDS011;62824;52.994;-3.936;2023-09-19T02:10:46;7.15;;;2.10;;
74383;SDS011;62824;52.994;-3.936;2023-09-19T02:13:17;7.45;;;1.38;;
74383;SDS011;62824;52.994;-3.936;2023-09-19T02:15:44;7.15;;;1.45;;
74383;SDS011;62824;52.994;-3.936;2023-09-19T02:18:11;5.68;;;1.40;;
74383;SDS011;62824;52.994;-3.936;2023-09-19T02:20:37;7.10;;;1.45;;
74383;SDS011;62824;52.994;-3.936;2023-09-19T02:23:04;9.15;;;1.60;;
74383;SDS011;62824;52.994;-3.936;2023-09-19T02:25:30;6.13;;;1.50;;
74383;SDS011;62824;52.994;-3.936;2023-09-19T02:27:57;5.43;;;1.55;;
74383;SDS011;62824;52.994;-3.936;2023-09-19T02:30:24;7.50;;;1.65;;
74383;SDS011;62824;52.994;-3.936;2023-09-19T02:32:53;3.53;;;1.58;;
74383;SDS011;62824;52.994;-3.936;2023-09-19T02:35:18;3.17;;;1.10;;
74383;SDS011;62824;52.994;-3.936;2023-09-19T02:37:47;3.40;;;1.10;;
74383;SDS011;62824;52.994;-3.936;2023-09-19T02:40:14;4.05;;;1.27;;
74383;SDS011;62824;52.994;-3.936;2023-09-19T02:42:52;5.70;;;1.17;;
74383;SDS011;62824;52.994;-3.936;2023-09-19T02:45:19;4.93;;;1.30;;
74383;SDS011;62824;52.994;-3.936;2023-09-19T02:47:46;1.63;;;1.00;;
74383;SDS011;62824;52.994;-3.936;2023-09-19T02:50:12;3.35;;;0.82;;
74383;SDS011;62824;52.994;-3.936;2023-09-19T02:52:44;3.13;;;0.63;;
74383;SDS011;62824;52.994;-3.936;2023-09-19T02:55:14;3.47;;;0.63;;
74383;SDS011;62824;52.994;-3.936;2023-09-19T02:57:48;3.53;;;1.00;;
74383;SDS011;62824;52.994;-3.936;2023-09-19T03:02:50;2.05;;;0.80;;
74383;SDS011;62824;52.994;-3.936;2023-09-19T03:05:18;2.72;;;0.98;;
74383;SDS011;62824;52.994;-3.936;2023-09-19T03:07:44;4.22;;;0.50;;
74383;SDS011;62824;52.994;-3.936;2023-09-19T03:10:20;4.22;;;0.77;;
74383;SDS011;62824;52.994;-3.936;2023-09-19T03:12:47;3.28;;;0.75;;
74383;SDS011;62824;52.994;-3.936;2023-09-19T03:15:13;2.15;;;0.80;;
74383;SDS011;62824;52.994;-3.936;2023-09-19T03:17:43;7.18;;;0.98;;
74383;SDS011;62824;52.994;-3.936;2023-09-19T03:20:10;2.40;;;0.70;;
74383;SDS011;62824;52.994;-3.936;2023-09-19T03:22:38;0.95;;;0.40;;
74383;SDS011;62824;52.994;-3.936;2023-09-19T03:25:05;2.55;;;0.45;;
74383;SDS011;62824;52.994;-3.936;2023-09-19T03:27:36;14.43;;;1.20;;
74383;SDS011;62824;52.994;-3.936;2023-09-19T03:30:02;19.90;;;2.33;;
74383;SDS011;62824;52.994;-3.936;2023-09-19T03:32:32;1.83;;;0.40;;
74383;SDS011;62824;52.994;-3.936;2023-09-19T03:34:57;6.75;;;0.50;;
74383;SDS011;62824;52.994;-3.936;2023-09-19T03:37:23;8.20;;;1.05;;
74383;SDS011;62824;52.994;-3.936;2023-09-19T03:39:49;2.15;;;0.60;;
74383;SDS011;62824;52.994;-3.936;2023-09-19T03:42:15;1.80;;;0.82;;
74383;SDS011;62824;52.994;-3.936;2023-09-19T03:44:41;7.20;;;1.70;;
74383;SDS011;62824;52.994;-3.936;2023-09-19T03:47:06;5.53;;;1.50;;
74383;SDS011;62824;52.994;-3.936;2023-09-19T03:49:32;7.25;;;1.60;;
74383;SDS011;62824;52.994;-3.936;2023-09-19T03:51:59;4.22;;;1.65;;
74383;SDS011;62824;52.994;-3.936;2023-09-19T03:54:24;5.30;;;1.40;;
74383;SDS011;62824;52.994;-3.936;2023-09-19T03:56:50;6.97;;;1.73;;
74383;SDS011;62824;52.994;-3.936;2023-09-19T03:59:16;3.35;;;1.33;;
74383;SDS011;62824;52.994;-3.936;2023-09-19T04:01:43;6.40;;;1.42;;
74383;SDS011;62824;52.994;-3.936;2023-09-19T04:04:09;4.32;;;1.60;;
74383;SDS011;62824;52.994;-3.936;2023-09-19T04:06:35;4.30;;;1.40;;
74383;SDS011;62824;52.994;-3.936;2023-09-19T04:09:01;5.78;;;1.70;;
74383;SDS011;62824;52.994;-3.936;2023-09-19T04:11:28;6.53;;;1.35;;
74383;SDS011;62824;52.994;-3.936;2023-09-19T04:13:58;4.35;;;1.40;;
74383;SDS011;62824;52.994;-3.936;2023-09-19T04:16:24;4.78;;;1.70;;
74383;SDS011;62824;52.994;-3.936;2023-09-19T04:18:50;9.63;;;1.95;;
74383;SDS011;62824;52.994;-3.936;2023-09-19T04:21:16;6.93;;;1.80;;
74383;SDS011;62824;52.994;-3.936;2023-09-19T04:23:42;6.53;;;2.08;;
74383;SDS011;62824;52.994;-3.936;2023-09-19T04:26:08;10.88;;;2.60;;
74383;SDS011;62824;52.994;-3.936;2023-09-19T04:28:33;5.07;;;1.98;;
74383;SDS011;62824;52.994;-3.936;2023-09-19T04:31:03;8.57;;;1.48;;
74383;SDS011;62824;52.994;-3.936;2023-09-19T04:33:29;10.02;;;2.72;;
74383;SDS011;62824;52.994;-3.936;2023-09-19T04:35:55;5.55;;;2.17;;
74383;SDS011;62824;52.994;-3.936;2023-09-19T04:38:21;8.50;;;1.80;;
74383;SDS011;62824;52.994;-3.936;2023-09-19T04:40:47;5.32;;;1.77;;
74383;SDS011;62824;52.994;-3.936;2023-09-19T04:43:13;7.03;;;1.75;;
74383;SDS011;62824;52.994;-3.936;2023-09-19T04:45:40;5.28;;;1.60;;
74383;SDS011;62824;52.994;-3.936;2023-09-19T04:48:06;4.32;;;2.03;;
74383;SDS011;62824;52.994;-3.936;2023-09-19T04:50:33;7.05;;;2.90;;
74383;SDS011;62824;52.994;-3.936;2023-09-19T04:52:59;7.60;;;2.10;;
74383;SDS011;62824;52.994;-3.936;2023-09-19T04:55:26;9.73;;;3.08;;
74383;SDS011;62824;52.994;-3.936;2023-09-19T04:57:52;16.05;;;3.40;;
74383;SDS011;62824;52.994;-3.936;2023-09-19T05:00:21;14.82;;;3.33;;
74383;SDS011;62824;52.994;-3.936;2023-09-19T05:02:55;19.85;;;3.28;;
74383;SDS011;62824;52.994;-3.936;2023-09-19T05:05:21;21.45;;;3.17;;
74383;SDS011;62824;52.994;-3.936;2023-09-19T05:07:48;17.52;;;4.38;;
74383;SDS011;62824;52.994;-3.936;2023-09-19T05:10:15;19.02;;;3.72;;
74383;SDS011;62824;52.994;-3.936;2023-09-19T05:12:44;13.68;;;3.33;;
74383;SDS011;62824;52.994;-3.936;2023-09-19T05:15:13;14.13;;;3.75;;
74383;SDS011;62824;52.994;-3.936;2023-09-19T05:17:40;16.17;;;3.47;;
74383;SDS011;62824;52.994;-3.936;2023-09-19T05:20:06;12.75;;;2.65;;
74383;SDS011;62824;52.994;-3.936;2023-09-19T05:22:41;9.77;;;2.35;;
74383;SDS011;62824;52.994;-3.936;2023-09-19T05:25:08;11.73;;;2.83;;
74383;SDS011;62824;52.994;-3.936;2023-09-19T05:27:35;12.80;;;2.85;;
74383;SDS011;62824;52.994;-3.936;2023-09-19T05:30:00;12.80;;;3.00;;
74383;SDS011;62824;52.994;-3.936;2023-09-19T05:32:26;10.88;;;2.85;;
74383;SDS011;62824;52.994;-3.936;2023-09-19T05:34:52;13.90;;;3.00;;
74383;SDS011;62824;52.994;-3.936;2023-09-19T05:37:18;12.40;;;2.30;;
74383;SDS011;62824;52.994;-3.936;2023-09-19T05:39:45;11.60;;;3.08;;
74383;SDS011;62824;52.994;-3.936;2023-09-19T05:42:10;10.63;;;2.20;;
74383;SDS011;62824;52.994;-3.936;2023-09-19T05:44:36;16.30;;;2.65;;
74383;SDS011;62824;52.994;-3.936;2023-09-19T05:47:02;12.30;;;3.35;;
74383;SDS011;62824;52.994;-3.936;2023-09-19T05:49:29;12.35;;;2.67;;
74383;SDS011;62824;52.994;-3.936;2023-09-19T05:51:54;9.57;;;2.53;;
74383;SDS011;62824;52.994;-3.936;2023-09-19T05:54:24;11.35;;;2.92;;
74383;SDS011;62824;52.994;-3.936;2023-09-19T05:56:49;23.02;;;4.35;;
74383;SDS011;62824;52.994;-3.936;2023-09-19T05:59:18;14.80;;;3.33;;
74383;SDS011;62824;52.994;-3.936;2023-09-19T06:01:44;12.15;;;3.20;;
74383;SDS011;62824;52.994;-3.936;2023-09-19T06:04:12;11.38;;;3.13;;
74383;SDS011;62824;52.994;-3.936;2023-09-19T06:06:38;10.75;;;2.55;;
74383;SDS011;62824;52.994;-3.936;2023-09-19T06:09:05;7.68;;;2.63;;
74383;SDS011;62824;52.994;-3.936;2023-09-19T06:11:33;13.23;;;2.45;;
74383;SDS011;62824;52.994;-3.936;2023-09-19T06:14:03;14.10;;;2.85;;
74383;SDS011;62824;52.994;-3.936;2023-09-19T06:16:29;6.72;;;1.90;;
74383;SDS011;62824;52.994;-3.936;2023-09-19T06:18:57;8.02;;;2.30;;
74383;SDS011;62824;52.994;-3.936;2023-09-19T06:21:24;12.02;;;2.40;;
74383;SDS011;62824;52.994;-3.936;2023-09-19T06:23:52;9.10;;;2.20;;
74383;SDS011;62824;52.994;-3.936;2023-09-19T06:26:20;11.88;;;2.30;;
74383;SDS011;62824;52.994;-3.936;2023-09-19T06:28:46;9.70;;;2.42;;
74383;SDS011;62824;52.994;-3.936;2023-09-19T06:31:12;10.73;;;2.35;;
74383;SDS011;62824;52.994;-3.936;2023-09-19T06:33:38;6.18;;;1.48;;
74383;SDS011;62824;52.994;-3.936;2023-09-19T06:36:07;8.40;;;1.85;;
74383;SDS011;62824;52.994;-3.936;2023-09-19T06:38:33;5.72;;;1.23;;
74383;SDS011;62824;52.994;-3.936;2023-09-19T06:41:01;6.30;;;1.55;;
74383;SDS011;62824;52.994;-3.936;2023-09-19T06:43:33;5.75;;;1.23;;
74383;SDS011;62824;52.994;-3.936;2023-09-19T06:46:00;4.85;;;1.17;;
74383;SDS011;62824;52.994;-3.936;2023-09-19T06:48:26;11.10;;;1.27;;
74383;SDS011;62824;52.994;-3.936;2023-09-19T06:50:54;6.32;;;1.65;;
74383;SDS011;62824;52.994;-3.936;2023-09-19T06:53:20;11.00;;;1.83;;
74383;SDS011;62824;52.994;-3.936;2023-09-19T06:55:48;5.32;;;1.50;;
74383;SDS011;62824;52.994;-3.936;2023-09-19T06:58:15;9.63;;;2.03;;
74383;SDS011;62824;52.994;-3.936;2023-09-19T07:00:42;8.43;;;1.70;;
74383;SDS011;62824;52.994;-3.936;2023-09-19T07:03:08;9.80;;;2.03;;
74383;SDS011;62824;52.994;-3.936;2023-09-19T07:05:36;9.43;;;2.20;;
74383;SDS011;62824;52.994;-3.936;2023-09-19T07:08:07;8.70;;;1.70;;
74383;SDS011;62824;52.994;-3.936;2023-09-19T07:10:35;5.43;;;1.73;;
74383;SDS011;62824;52.994;-3.936;2023-09-19T07:13:02;11.73;;;1.88;;
74383;SDS011;62824;52.994;-3.936;2023-09-19T07:15:30;10.70;;;2.40;;
74383;SDS011;62824;52.994;-3.936;2023-09-19T07:17:58;8.95;;;1.85;;
74383;SDS011;62824;52.994;-3.936;2023-09-19T07:20:26;9.48;;;1.90;;
74383;SDS011;62824;52.994;-3.936;2023-09-19T07:22:53;10.60;;;2.20;;
74383;SDS011;62824;52.994;-3.936;2023-09-19T07:25:25;11.57;;;2.00;;
74383;SDS011;62824;52.994;-3.936;2023-09-19T07:27:51;11.43;;;2.58;;
74383;SDS011;62824;52.994;-3.936;2023-09-19T07:30:17;11.07;;;2.10;;
74383;SDS011;62824;52.994;-3.936;2023-09-19T07:32:43;15.15;;;2.28;;
74383;SDS011;62824;52.994;-3.936;2023-09-19T07:35:09;19.02;;;2.20;;
74383;SDS011;62824;52.994;-3.936;2023-09-19T07:37:34;12.63;;;2.97;;
74383;SDS011;62824;52.994;-3.936;2023-09-19T07:40:04;13.52;;;2.60;;
74383;SDS011;62824;52.994;-3.936;2023-09-19T07:42:39;12.77;;;2.90;;
74383;SDS011;62824;52.994;-3.936;2023-09-19T07:45:08;14.85;;;2.42;;
74383;SDS011;62824;52.994;-3.936;2023-09-19T07:47:38;17.05;;;2.58;;
74383;SDS011;62824;52.994;-3.936;2023-09-19T07:50:04;15.05;;;2.58;;
74383;SDS011;62824;52.994;-3.936;2023-09-19T07:52:32;12.23;;;3.13;;
74383;SDS011;62824;52.994;-3.936;2023-09-19T07:54:58;14.70;;;3.00;;
74383;SDS011;62824;52.994;-3.936;2023-09-19T07:57:26;16.70;;;2.80;;
74383;SDS011;62824;52.994;-3.936;2023-09-19T07:59:53;13.68;;;2.53;;
74383;SDS011;62824;52.994;-3.936;2023-09-19T08:02:19;11.65;;;2.78;;
74383;SDS011;62824;52.994;-3.936;2023-09-19T08:04:45;13.43;;;2.05;;
74383;SDS011;62824;52.994;-3.936;2023-09-19T08:07:11;14.15;;;2.80;;
74383;SDS011;62824;52.994;-3.936;2023-09-19T08:09:38;20.63;;;3.13;;
74383;SDS011;62824;52.994;-3.936;2023-09-19T08:12:05;15.70;;;3.22;;
74383;SDS011;62824;52.994;-3.936;2023-09-19T08:14:33;15.57;;;3.10;;
74383;SDS011;62824;52.994;-3.936;2023-09-19T08:16:59;16.45;;;2.63;;
74383;SDS011;62824;52.994;-3.936;2023-09-19T08:19:25;14.70;;;2.72;;
74383;SDS011;62824;52.994;-3.936;2023-09-19T08:21:56;18.75;;;2.97;;
74383;SDS011;62824;52.994;-3.936;2023-09-19T08:24:25;16.98;;;2.70;;
74383;SDS011;62824;52.994;-3.936;2023-09-19T08:26:55;17.40;;;2.92;;
74383;SDS011;62824;52.994;-3.936;2023-09-19T08:29:22;13.07;;;3.13;;
74383;SDS011;62824;52.994;-3.936;2023-09-19T08:34:21;19.38;;;3.00;;
74383;SDS011;62824;52.994;-3.936;2023-09-19T08:36:49;11.57;;;2.35;;
74383;SDS011;62824;52.994;-3.936;2023-09-19T08:39:22;13.43;;;2.58;;
74383;SDS011;62824;52.994;-3.936;2023-09-19T08:41:48;13.65;;;2.03;;
74383;SDS011;62824;52.994;-3.936;2023-09-19T08:44:14;8.70;;;2.00;;
74383;SDS011;62824;52.994;-3.936;2023-09-19T08:46:41;14.18;;;2.00;;
74383;SDS011;62824;52.994;-3.936;2023-09-19T08:49:12;12.85;;;2.30;;
74383;SDS011;62824;52.994;-3.936;2023-09-19T08:51:57;12.30;;;2.13;;
74383;SDS011;62824;52.994;-3.936;2023-09-19T08:54:37;11.18;;;2.10;;
74383;SDS011;62824;52.994;-3.936;2023-09-19T08:57:06;16.42;;;2.75;;
74383;SDS011;62824;52.994;-3.936;2023-09-19T08:59:39;16.25;;;2.08;;
74383;SDS011;62824;52.994;-3.936;2023-09-19T09:02:11;14.45;;;2.08;;
74383;SDS011;62824;52.994;-3.936;2023-09-19T09:04:41;14.82;;;2.90;;
74383;SDS011;62824;52.994;-3.936;2023-09-19T09:07:11;13.10;;;2.72;;
74383;SDS011;62824;52.994;-3.936;2023-09-19T09:09:44;12.05;;;2.28;;
74383;SDS011;62824;52.994;-3.936;2023-09-19T09:12:13;8.85;;;2.08;;
74383;SDS011;62824;52.994;-3.936;2023-09-19T09:14:43;10.98;;;1.67;;
74383;SDS011;62824;52.994;-3.936;2023-09-19T09:17:11;10.27;;;1.88;;
74383;SDS011;62824;52.994;-3.936;2023-09-19T09:19:37;9.88;;;2.00;;
74383;SDS011;62824;52.994;-3.936;2023-09-19T09:22:09;14.52;;;3.08;;
74383;SDS011;62824;52.994;-3.936;2023-09-19T09:24:36;11.15;;;1.63;;
74383;SDS011;62824;52.994;-3.936;2023-09-19T09:27:05;10.35;;;2.00;;
74383;SDS011;62824;52.994;-3.936;2023-09-19T09:29:41;13.50;;;1.95;;
74383;SDS011;62824;52.994;-3.936;2023-09-19T09:34:44;9.35;;;1.70;;
74383;SDS011;62824;52.994;-3.936;2023-09-19T09:37:16;11.02;;;2.72;;
74383;SDS011;62824;52.994;-3.936;2023-09-19T09:39:52;8.48;;;2.10;;
74383;SDS011;62824;52.994;-3.936;2023-09-19T09:42:33;12.20;;;1.90;;
74383;SDS011;62824;52.994;-3.936;2023-09-19T09:45:19;12.82;;;2.25;;
74383;SDS011;62824;52.994;-3.936;2023-09-19T09:48:00;7.07;;;1.70;;
74383;SDS011;62824;52.994;-3.936;2023-09-19T09:50:46;9.30;;;2.20;;
74383;SDS011;62824;52.994;-3.936;2023-09-19T09:53:28;11.80;;;1.50;;
74383;SDS011;62824;52.994;-3.936;2023-09-19T09:55:57;5.15;;;1.17;;
74383;SDS011;62824;52.994;-3.936;2023-09-19T09:58:31;6.85;;;1.40;;
74383;SDS011;62824;52.994;-3.936;2023-09-19T10:01:24;2.92;;;1.00;;
74383;SDS011;62824;52.994;-3.936;2023-09-19T10:03:56;7.45;;;1.20;;
74383;SDS011;62824;52.994;-3.936;2023-09-19T10:06:23;9.45;;;2.80;;
74383;SDS011;62824;52.994;-3.936;2023-09-19T10:11:41;8.63;;;1.63;;
74383;SDS011;62824;52.994;-3.936;2023-09-19T10:14:09;11.30;;;1.83;;
74383;SDS011;62824;52.994;-3.936;2023-09-19T10:16:45;7.63;;;1.48;;
74383;SDS011;62824;52.994;-3.936;2023-09-19T10:19:15;11.00;;;2.20;;
74383;SDS011;62824;52.994;-3.936;2023-09-19T10:21:50;11.30;;;1.70;;
74383;SDS011;62824;52.994;-3.936;2023-09-19T10:24:18;10.65;;;1.75;;
74383;SDS011;62824;52.994;-3.936;2023-09-19T10:26:45;10.85;;;2.05;;
74383;SDS011;62824;52.994;-3.936;2023-09-19T10:29:13;9.65;;;1.88;;
74383;SDS011;62824;52.994;-3.936;2023-09-19T10:31:41;11.52;;;1.60;;
74383;SDS011;62824;52.994;-3.936;2023-09-19T10:34:15;12.77;;;2.70;;
74383;SDS011;62824;52.994;-3.936;2023-09-19T10:36:46;6.25;;;1.35;;
74383;SDS011;62824;52.994;-3.936;2023-09-19T10:39:15;9.20;;;1.65;;
74383;SDS011;62824;52.994;-3.936;2023-09-19T10:41:47;8.30;;;2.00;;
74383;SDS011;62824;52.994;-3.936;2023-09-19T10:44:21;9.05;;;2.28;;
74383;SDS011;62824;52.994;-3.936;2023-09-19T10:46:50;10.00;;;7.32;;
74383;SDS011;62824;52.994;-3.936;2023-09-19T10:49:20;11.73;;;2.67;;
74383;SDS011;62824;52.994;-3.936;2023-09-19T10:51:47;13.68;;;2.78;;
74383;SDS011;62824;52.994;-3.936;2023-09-19T10:54:19;12.63;;;2.67;;
74383;SDS011;62824;52.994;-3.936;2023-09-19T10:56:48;13.97;;;3.97;;
74383;SDS011;62824;52.994;-3.936;2023-09-19T10:59:20;19.10;;;5.50;;
74383;SDS011;62824;52.994;-3.936;2023-09-19T11:01:53;10.65;;;2.97;;
74383;SDS011;62824;52.994;-3.936;2023-09-19T11:04:24;17.67;;;2.88;;
74383;SDS011;62824;52.994;-3.936;2023-09-19T11:06:59;17.63;;;3.30;;
74383;SDS011;62824;52.994;-3.936;2023-09-19T11:09:44;10.95;;;2.42;;
74383;SDS011;62824;52.994;-3.936;2023-09-19T11:15:03;10.98;;;2.80;;
74383;SDS011;62824;52.994;-3.936;2023-09-19T11:17:39;15.65;;;2.50;;
74383;SDS011;62824;52.994;-3.936;2023-09-19T11:20:20;6.53;;;1.60;;
74383;SDS011;62824;52.994;-3.936;2023-09-19T11:25:52;42.22;;;21.45;;
74383;SDS011;62824;52.994;-3.936;2023-09-19T11:30:48;37.10;;;21.52;;
74383;SDS011;62824;52.994;-3.936;2023-09-19T11:36:10;10.95;;;3.10;;
74383;SDS011;62824;52.994;-3.936;2023-09-19T11:46:31;8.45;;;1.92;;
74383;SDS011;62824;52.994;-3.936;2023-09-19T11:49:08;5.43;;;1.50;;
74383;SDS011;62824;52.994;-3.936;2023-09-19T11:51:44;7.72;;;2.15;;
74383;SDS011;62824;52.994;-3.936;2023-09-19T11:54:16;5.22;;;1.50;;
74383;SDS011;62824;52.994;-3.936;2023-09-19T11:56:43;5.35;;;1.27;;
74383;SDS011;62824;52.994;-3.936;2023-09-19T11:59:19;3.55;;;1.38;;
74383;SDS011;62824;52.994;-3.936;2023-09-19T12:01:51;5.95;;;1.17;;
74383;SDS011;62824;52.994;-3.936;2023-09-19T12:04:37;8.43;;;1.98;;
74383;SDS011;62824;52.994;-3.936;2023-09-19T12:07:15;6.97;;;2.08;;
74383;SDS011;62824;52.994;-3.936;2023-09-19T12:09:47;4.32;;;1.45;;
74383;SDS011;62824;52.994;-3.936;2023-09-19T12:15:34;13.73;;;1.90;;
74383;SDS011;62824;52.994;-3.936;2023-09-19T12:18:05;7.35;;;2.30;;
74383;SDS011;62824;52.994;-3.936;2023-09-19T12:20:49;12.88;;;2.75;;
74383;SDS011;62824;52.994;-3.936;2023-09-19T12:23:16;9.23;;;1.67;;
74383;SDS011;62824;52.994;-3.936;2023-09-19T12:25:45;6.93;;;1.55;;
74383;SDS011;62824;52.994;-3.936;2023-09-19T12:28:14;4.20;;;1.73;;
74383;SDS011;62824;52.994;-3.936;2023-09-19T12:30:48;11.30;;;3.00;;
74383;SDS011;62824;52.994;-3.936;2023-09-19T12:33:20;18.95;;;2.80;;
74383;SDS011;62824;52.994;-3.936;2023-09-19T12:35:51;21.55;;;3.97;;
74383;SDS011;62824;52.994;-3.936;2023-09-19T12:39:00;18.52;;;4.45;;
74383;SDS011;62824;52.994;-3.936;2023-09-19T12:41:55;15.93;;;4.13;;
74383;SDS011;62824;52.994;-3.936;2023-09-19T12:44:28;20.88;;;4.60;;
74383;SDS011;62824;52.994;-3.936;2023-09-19T12:46:54;22.02;;;4.30;;
74383;SDS011;62824;52.994;-3.936;2023-09-19T12:49:31;22.58;;;5.47;;
74383;SDS011;62824;52.994;-3.936;2023-09-19T12:52:05;34.20;;;5.25;;
74383;SDS011;62824;52.994;-3.936;2023-09-19T12:58:12;27.20;;;5.18;;
74383;SDS011;62824;52.994;-3.936;2023-09-19T13:00:44;31.85;;;5.18;;
74383;SDS011;62824;52.994;-3.936;2023-09-19T13:03:14;27.60;;;5.13;;
74383;SDS011;62824;52.994;-3.936;2023-09-19T13:05:52;23.92;;;5.40;;
74383;SDS011;62824;52.994;-3.936;2023-09-19T13:08:20;28.45;;;7.43;;
74383;SDS011;62824;52.994;-3.936;2023-09-19T13:11:15;18.73;;;4.70;;
74383;SDS011;62824;52.994;-3.936;2023-09-19T13:13:47;28.75;;;5.90;;
74383;SDS011;62824;52.994;-3.936;2023-09-19T13:16:24;25.33;;;6.38;;
74383;SDS011;62824;52.994;-3.936;2023-09-19T13:19:00;28.23;;;5.95;;
74383;SDS011;62824;52.994;-3.936;2023-09-19T13:21:41;31.80;;;6.00;;
74383;SDS011;62824;52.994;-3.936;2023-09-19T13:27:04;31.67;;;5.63;;
74383;SDS011;62824;52.994;-3.936;2023-09-19T13:29:33;25.73;;;5.50;;
74383;SDS011;62824;52.994;-3.936;2023-09-19T13:35:02;23.40;;;4.88;;
74383;SDS011;62824;52.994;-3.936;2023-09-19T13:37:30;23.98;;;5.47;;
74383;SDS011;62824;52.994;-3.936;2023-09-19T13:39:57;24.40;;;5.30;;
74383;SDS011;62824;52.994;-3.936;2023-09-19T13:42:24;32.03;;;5.65;;
74383;SDS011;62824;52.994;-3.936;2023-09-19T13:44:54;31.67;;;6.47;;
74383;SDS011;62824;52.994;-3.936;2023-09-19T13:47:21;31.25;;;5.80;;
74383;SDS011;62824;52.994;-3.936;2023-09-19T13:49:50;27.35;;;5.35;;
74383;SDS011;62824;52.994;-3.936;2023-09-19T13:52:18;27.50;;;6.90;;
74383;SDS011;62824;52.994;-3.936;2023-09-19T13:54:44;28.17;;;5.28;;
74383;SDS011;62824;52.994;-3.936;2023-09-19T13:57:10;26.45;;;5.43;;
74383;SDS011;62824;52.994;-3.936;2023-09-19T13:59:36;17.15;;;3.80;;
74383;SDS011;62824;52.994;-3.936;2023-09-19T14:02:02;19.27;;;3.83;;
74383;SDS011;62824;52.994;-3.936;2023-09-19T14:04:28;23.45;;;4.53;;
74383;SDS011;62824;52.994;-3.936;2023-09-19T14:06:56;26.20;;;5.00;;
74383;SDS011;62824;52.994;-3.936;2023-09-19T14:09:23;23.30;;;4.78;;
74383;SDS011;62824;52.994;-3.936;2023-09-19T14:11:50;19.55;;;4.50;;
74383;SDS011;62824;52.994;-3.936;2023-09-19T14:14:18;21.17;;;4.40;;
74383;SDS011;62824;52.994;-3.936;2023-09-19T14:16:48;26.27;;;5.18;;
74383;SDS011;62824;52.994;-3.936;2023-09-19T14:19:21;30.35;;;5.57;;
74383;SDS011;62824;52.994;-3.936;2023-09-19T14:21:52;22.55;;;5.00;;
74383;SDS011;62824;52.994;-3.936;2023-09-19T14:24:20;23.23;;;5.25;;
74383;SDS011;62824;52.994;-3.936;2023-09-19T14:26:46;28.52;;;5.80;;
74383;SDS011;62824;52.994;-3.936;2023-09-19T14:29:15;23.67;;;5.78;;
74383;SDS011;62824;52.994;-3.936;2023-09-19T14:31:53;28.42;;;6.05;;
74383;SDS011;62824;52.994;-3.936;2023-09-19T14:34:48;25.52;;;5.25;;
74383;SDS011;62824;52.994;-3.936;2023-09-19T14:37:14;26.77;;;5.65;;
74383;SDS011;62824;52.994;-3.936;2023-09-19T14:39:43;19.30;;;5.40;;
74383;SDS011;62824;52.994;-3.936;2023-09-19T14:42:35;30.50;;;6.05;;
74383;SDS011;62824;52.994;-3.936;2023-09-19T14:45:07;23.73;;;5.93;;
74383;SDS011;62824;52.994;-3.936;2023-09-19T14:47:37;28.20;;;5.03;;
74383;SDS011;62824;52.994;-3.936;2023-09-19T14:50:09;15.82;;;4.80;;
74383;SDS011;62824;52.994;-3.936;2023-09-19T14:52:37;28.20;;;5.47;;
74383;SDS011;62824;52.994;-3.936;2023-09-19T14:55:03;27.00;;;5.82;;
74383;SDS011;62824;52.994;-3.936;2023-09-19T14:57:31;28.17;;;4.97;;
74383;SDS011;62824;52.994;-3.936;2023-09-19T14:59:57;22.98;;;5.38;;
74383;SDS011;62824;52.994;-3.936;2023-09-19T15:02:23;28.95;;;5.47;;
74383;SDS011;62824;52.994;-3.936;2023-09-19T15:04:51;24.70;;;5.32;;
74383;SDS011;62824;52.994;-3.936;2023-09-19T15:07:17;26.15;;;6.60;;
74383;SDS011;62824;52.994;-3.936;2023-09-19T15:09:43;30.13;;;5.45;;
74383;SDS011;62824;52.994;-3.936;2023-09-19T15:12:09;23.65;;;5.57;;
74383;SDS011;62824;52.994;-3.936;2023-09-19T15:14:39;22.25;;;5.28;;
74383;SDS011;62824;52.994;-3.936;2023-09-19T15:17:06;31.02;;;7.63;;
74383;SDS011;62824;52.994;-3.936;2023-09-19T15:19:32;25.05;;;5.30;;
74383;SDS011;62824;52.994;-3.936;2023-09-19T15:21:58;28.95;;;4.63;;
74383;SDS011;62824;52.994;-3.936;2023-09-19T15:24:25;24.15;;;6.13;;
74383;SDS011;62824;52.994;-3.936;2023-09-19T15:26:51;31.50;;;5.43;;
74383;SDS011;62824;52.994;-3.936;2023-09-19T15:29:17;22.90;;;4.78;;
74383;SDS011;62824;52.994;-3.936;2023-09-19T15:31:45;19.58;;;5.32;;
74383;SDS011;62824;52.994;-3.936;2023-09-19T15:34:10;25.10;;;5.15;;
74383;SDS011;62824;52.994;-3.936;2023-09-19T15:36:39;27.10;;;5.53;;
74383;SDS011;62824;52.994;-3.936;2023-09-19T15:39:07;23.42;;;4.45;;
74383;SDS011;62824;52.994;-3.936;2023-09-19T15:41:37;20.13;;;4.93;;
74383;SDS011;62824;52.994;-3.936;2023-09-19T15:44:04;23.52;;;4.53;;